• Join FlightAware (Why Join?)
  • Login
  • US Flag 
12:42PM EDT


 

Airport Tracker/Info


-or-


 

Live Flight TrackerFlight Track Log ✈ SWA311 ✈ 19-May-2013 ✈ KBWI - KRDU

Flight Track Log - Related Links

Times and Time Zones

All times are in EDT time to prevent confusion due to time zone crossing. See the SWA311 flight status page for this flight to view local times or setup timezone preferences in your user account.

Time Position Orientation Groundspeed Altitude Reporting Facility
EDT Latitude Longitude Course Direction KTS MPH feet Rate Location/Type
08:10PM 39.1500 -76.6500 153° Southeast 158 182 1,700  Level Potomac TRACON
08:11PM 39.1000 -76.6167 153° Southeast 201 231 3,800 2,520 Climbing Potomac TRACON
08:12PM 39.0500 -76.5500 134° Southeast 260 299 6,800 2,940 Climbing Potomac TRACON
08:14PM 38.8892 -76.4850 163° South 286 329 13,400 2,160 Climbing Washington Center
08:15PM 38.8011 -76.5506 210° Southwest 313 360 14,000 960 Climbing Washington Center
08:16PM 38.7153 -76.6133 210° Southwest 329 379 15,300 2,160 Climbing Washington Center
08:17PM 38.6269 -76.6786 210° Southwest 352 405 18,400 3,120 Climbing Washington Center
08:18PM 38.5306 -76.7275 202° Southwest 371 427 21,700 1,800 Climbing Washington Center
08:19PM 38.4286 -76.7128 174° South 358 412 22,000 120 Climbing Washington Center
08:20PM 38.3225 -76.6981 174° South 363 418 22,000  Level Washington Center
08:21PM 38.2244 -76.6964 179° South 363 418 22,000 -120 Level Washington Center
08:22PM 38.1383 -76.7719 215° Southwest 350 403 21,800 -660 Descending Washington Center
08:23PM 38.0542 -76.8469 215° Southwest 362 417 20,700 -900 Descending Washington Center
08:24PM 37.9783 -76.9117 214° Southwest 368 423 20,000 -360 Descending Washington Center
08:25PM 37.9025 -76.9786 215° Southwest 368 423 20,000  Level Washington Center
08:26PM 37.8244 -77.0561 218° Southwest 362 417 20,000  Level Washington Center
08:27PM 37.7483 -77.1386 221° Southwest 362 417 20,000  Level Washington Center
08:28PM 37.6742 -77.2158 220° Southwest 362 417 20,000  Level Washington Center
08:29PM 37.5939 -77.2875 215° Southwest 357 411 20,000  Level Washington Center
08:30PM 37.5056 -77.3433 207° Southwest 357 411 20,000  Level Washington Center
08:31PM 37.4150 -77.4014 207° Southwest 362 417 20,000  Level Washington Center
08:32PM 37.3139 -77.4617 205° Southwest 367 422 20,000  Level Washington Center
08:33PM 37.2233 -77.5219 208° Southwest 367 422 20,000  Level Washington Center
08:34PM 37.1328 -77.5744 205° Southwest 367 422 20,000  Level Washington Center
08:35PM 37.0422 -77.6319 207° Southwest 372 428 20,000  Level Washington Center
08:36PM 36.9514 -77.6894 207° Southwest 372 428 20,000  Level Washington Center
08:37PM 36.8586 -77.7492 207° Southwest 372 428 20,000  Level Washington Center
08:38PM 36.7678 -77.8036 206° Southwest 372 428 20,000 -60 Level Washington Center
08:39PM 36.6772 -77.8581 206° Southwest 372 428 19,900 -900 Descending Washington Center
08:40PM 36.5886 -77.9097 205° Southwest 367 422 18,300 -1,560 Descending Washington Center
08:41PM 36.5292 -77.9494 208° Southwest 342 394 17,300 -1,380 Descending Washington Center
08:41PM 36.5061 -77.9589 198° South 355 409 16,900 -1,740 Descending Washington Center
08:42PM 36.4658 -77.9886 211° Southwest 322 371 15,900 -1,560 Descending Washington Center
08:42PM 36.4278 -78.0133 208° Southwest 336 387 15,400 -1,500 Descending Washington Center
08:43PM 36.3856 -78.0378 205° Southwest 316 364 14,400 -1,500 Descending Washington Center
08:43PM 36.3583 -78.0525 204° Southwest 319 367 13,900 -1,620 Descending Washington Center
08:44PM 36.3053 -78.0894 209° Southwest 309 356 12,800 -1,500 Descending Washington Center
08:44PM 36.2822 -78.0992 199° South 319 367 12,400 -1,440 Descending Washington Center
08:45PM 36.2397 -78.1261 207° Southwest 304 350 11,500 -1,740 Descending Washington Center
08:45PM 36.1975 -78.1506 205° Southwest 305 351 10,700 -1,440 Descending Washington Center
08:46PM 36.1722 -78.1675 208° Southwest 293 337 10,200 -1,200 Descending Washington Center
08:47PM 36.1392 -78.2514 244° Southwest 274 315 9,100 -1,140 Descending Washington Center
08:47PM 36.1211 -78.3072 248° West 270 311 8,400 -1,200 Descending Washington Center
08:48PM 36.1078 -78.3403 243° Southwest 262 302 7,900 -900 Descending Washington Center
08:48PM 36.0944 -78.3836 249° West 263 303 7,500 -1,020 Descending Washington Center
08:49PM 36.0917 -78.4092 262° West 256 295 7,000 -1,020 Descending Washington Center
08:49PM 36.1350 -78.4286 340° North 182 209 6,500 -900 Descending Washington Center
08:50PM 36.1500 -78.4114 43° Northeast 259 298 6,100 -420 Descending Washington Center
08:50PM 36.1861 -78.3792 36° Northeast 124 143 6,100 -120 Level Washington Center
08:51PM 36.2033 -78.3592 43° Northeast 248 285 6,000 -120 Descending Washington Center
08:52PM 36.2503 -78.3144 38° Northeast 247 284 6,000  Level Washington Center
08:53PM 36.2622 -78.2453 78° East 231 266 6,000  Level Washington Center
08:54PM 36.2075 -78.2692 199° South 217 250 6,000  Level Washington Center
08:55PM 36.1564 -78.3111 214° Southwest 217 250 6,000  Level Washington Center
08:56PM 36.0997 -78.3322 197° South 234 269 6,000  Level Washington Center
08:57PM 36.0275 -78.2964 158° South 259 298 6,000 60 Level Washington Center
08:57PM 36.0067 -78.2881 162° South 329 379 6,100  Climbing Washington Center
08:58PM 35.9614 -78.2686 161° South 259 298 6,000 600 Descending Washington Center
08:58PM 35.9344 -78.2547 157° South 265 305 6,700 2,880 Climbing Washington Center
08:59PM 35.8994 -78.2383 159° South 262 302 8,600 3,660 Climbing Washington Center
08:59PM 35.8725 -78.2244 157° South 265 305 10,400 3,780 Climbing Washington Center
09:00PM 35.8272 -78.2050 161° South 270 311 12,400 3,240 Climbing Washington Center
09:00PM 35.7983 -78.1889 156° South 272 313 13,700 1,380 Climbing Washington Center
09:01PM 35.7506 -78.1692 161° South 302 348 13,900 240 Climbing Washington Center
09:01PM 35.7219 -78.1531 155° Southeast 288 331 14,000  Climbing Washington Center
09:02PM 35.6764 -78.1336 161° South 303 349 13,900  Descending Washington Center
09:02PM 35.6433 -78.1122 152° Southeast 293 337 14,000  Climbing Washington Center
09:03PM 35.6000 -78.0956 163° South 302 348 13,900  Descending Washington Center
09:03PM 35.5564 -78.0761 160° South 298 343 14,000 60 Climbing Washington Center
09:04PM 35.5144 -78.0878 193° South 297 342 14,000  Level Washington Center
09:04PM 35.4786 -78.1069 204° Southwest 290 334 14,000 -120 Level Washington Center
09:05PM 35.4406 -78.1339 210° Southwest 289 333 13,900  Descending Washington Center
09:05PM 35.4044 -78.1608 211° Southwest 290 334 14,000 60 Climbing Washington Center
09:06PM 35.3786 -78.2006 231° Southwest 297 342 14,000  Level Washington Center
09:06PM 35.3733 -78.2489 262° West 262 302 14,000  Level Washington Center
09:07PM 35.3764 -78.3050 274° West 308 354 14,000  Level Washington Center
09:07PM 35.3772 -78.3533 271° West 261 300 14,000 -120 Level Washington Center
09:08PM 35.3717 -78.4092 263° West 290 334 13,900  Descending Washington Center
09:08PM 35.3750 -78.4528 275° West 284 327 14,000  Climbing Washington Center
09:09PM 35.3669 -78.5211 262° West 283 326 13,900  Descending Washington Center
09:09PM 35.3683 -78.5492 273° West 292 336 14,000  Climbing Washington Center
09:10PM 35.3603 -78.6203 262° West 287 330 13,900 60 Descending Washington Center
09:10PM 35.3681 -78.6461 290° West 292 336 14,100  Climbing Washington Center
09:11PM 35.3789 -78.7153 281° West 290 334 13,900  Descending Washington Center
09:11PM 35.3842 -78.7433 283° West 287 330 14,100 60 Climbing Washington Center
09:12PM 35.3942 -78.8381 277° West 293 337 14,000 -120 Descending Washington Center
09:13PM 35.3947 -78.8967 271° West 254 292 13,900  Descending Washington Center
09:13PM 35.3981 -78.9275 278° West 283 326 14,000  Climbing Washington Center
09:14PM 35.4006 -78.9836 273° West 255 293 13,900  Descending Washington Center
09:14PM 35.4019 -79.0117 273° West 268 308 14,000 60 Climbing Washington Center
09:15PM 35.4058 -79.0986 273° West 263 303 14,000 -60 Level Washington Center
09:16PM 35.4053 -79.1800 270° West 260 299 13,900  Descending Washington Center
09:17PM 35.3594 -79.2492 231° Southwest 242 278 14,000  Climbing Washington Center
09:18PM 35.2939 -79.2819 202° Southwest 254 292 13,900 -420 Descending Washington Center
09:19PM 35.3167 -79.3542 291° West 298 343 13,300 -900 Descending Washington Center
09:20PM 35.3944 -79.3986 335° Northwest 315 362 12,300 -1,320 Descending Washington Center
09:21PM 35.4733 -79.4128 352° North 299 344 10,800 -1,380 Descending Washington Center
09:22PM 35.5361 -79.3367 45° Northeast 293 337 9,500 -900 Descending Washington Center
09:23PM 35.5844 -79.2569 53° Northeast 266 306 8,900 -960 Descending Washington Center
09:24PM 35.6181 -79.1844 60° Northeast 236 272 7,500 -1,560 Descending Washington Center
09:25PM 35.6533 -79.1172 57° Northeast 230 265 5,800 -1,440 Descending Washington Center
09:26PM 35.6869 -79.0444 60° Northeast 212 244 4,500 -780 Descending Washington Center
09:27PM 35.7136 -78.9892 59° Northeast 180 207 4,200 -540 Descending Washington Center
09:28PM 35.7503 -78.9397 48° Northeast 215 247 3,500 -1,080 Descending Washington Center
09:29PM 35.7894 -78.8900 46° Northeast 224 258 2,300 -1,140 Descending Washington Center
09:30PM 35.8217 -78.8478 47° Northeast 178 205 1,400 -840 Descending Washington Center
09:31PM 35.8542 -78.8108 43° Northeast 144 166 600 -840 Descending Washington Center
09:33PM 35.8667 -78.7833 North  Level FlightAware Approximate
09:40PM 35.8776 -78.7875 North  Level Estimated